Time;durP1;ratioP1;P1;durP2;ratioP2;P2;SDS_P1;SDS_P2;PMS_P1;PMS_P2;Temp;Humidity;BMP_temperature;BMP_pressure;BME280_temperature;BME280_humidity;BME280_pressure;Samples;Min_cycle;Max_cycle;Signal;HPM_P1;HPM_P2
2022/09/23 00:00:36;;;;;;;15.00;10.57;;;10.60;99.90;;;;;;5075502;28;20040;-80
2022/09/23 00:03:03;;;;;;;12.32;10.18;;;10.60;99.90;;;;;;5075698;28;20044;-80
2022/09/23 00:05:30;;;;;;;12.10;10.48;;;10.50;99.90;;;;;;5036402;28;20040;-80
2022/09/23 00:07:56;;;;;;;12.68;10.80;;;10.50;99.90;;;;;;5079537;28;20052;-80
2022/09/23 00:10:24;;;;;;;12.63;10.75;;;10.50;99.90;;;;;;5055454;28;20032;-80
2022/09/23 00:12:50;;;;;;;14.77;11.30;;;10.50;99.90;;;;;;5052434;28;20080;-81
2022/09/23 00:15:16;;;;;;;15.32;11.35;;;10.50;99.90;;;;;;5041024;28;20074;-80
2022/09/23 00:17:42;;;;;;;13.05;10.40;;;10.40;99.90;;;;;;5054191;28;20067;-80
2022/09/23 00:20:09;;;;;;;15.80;11.23;;;10.40;99.90;;;;;;5075423;28;20036;-80
2022/09/23 00:22:36;;;;;;;13.20;10.93;;;10.40;99.90;;;;;;5058118;28;20072;-80
2022/09/23 00:25:03;;;;;;;11.38;10.18;;;10.40;99.90;;;;;;5045375;28;20050;-80
2022/09/23 00:27:29;;;;;;;14.05;11.02;;;10.40;99.90;;;;;;5065391;28;20040;-81
2022/09/23 00:29:55;;;;;;;11.63;10.10;;;10.40;99.90;;;;;;5034339;28;20445;-80
2022/09/23 00:32:21;;;;;;;14.00;10.50;;;10.40;99.90;;;;;;5055334;28;20056;-80
2022/09/23 00:34:47;;;;;;;15.40;10.77;;;10.40;99.90;;;;;;5073636;28;20170;-80
2022/09/23 00:37:13;;;;;;;14.27;11.02;;;10.40;99.90;;;;;;5072223;28;20047;-80
2022/09/23 00:39:39;;;;;;;13.18;11.05;;;10.30;99.90;;;;;;5072910;28;20076;-80
2022/09/23 00:42:08;;;;;;;11.55;10.25;;;10.40;99.90;;;;;;5061631;28;20600;-80
2022/09/23 00:44:51;;;;;;;13.68;10.77;;;10.30;99.90;;;;;;5068333;28;20040;-81
2022/09/23 00:47:20;;;;;;;15.13;10.73;;;10.30;99.90;;;;;;5071850;28;20043;-80
2022/09/23 00:49:55;;;;;;;13.82;10.93;;;10.30;99.90;;;;;;5074355;28;20040;-80
2022/09/23 00:52:23;;;;;;;11.70;10.30;;;10.30;99.90;;;;;;5072837;28;20032;-81
2022/09/23 00:54:54;;;;;;;11.45;10.35;;;10.30;99.90;;;;;;5055420;28;20481;-81
2022/09/23 00:57:21;;;;;;;14.23;10.43;;;10.30;99.90;;;;;;5053287;28;20055;-81
2022/09/23 00:59:49;;;;;;;12.70;11.23;;;10.20;99.90;;;;;;5054836;28;20036;-80
2022/09/23 01:02:16;;;;;;;15.10;11.38;;;10.30;99.90;;;;;;5073481;28;20071;-80
2022/09/23 01:04:42;;;;;;;13.15;10.57;;;10.20;99.90;;;;;;5071687;28;20064;-80
2022/09/23 01:07:08;;;;;;;14.50;10.93;;;10.20;99.90;;;;;;5039683;28;20100;-80
2022/09/23 01:09:35;;;;;;;14.27;11.32;;;10.60;99.90;;;;;;5072983;28;20122;-81
2022/09/23 01:12:00;;;;;;;12.07;10.60;;;10.20;99.90;;;;;;5029500;28;20044;-80
2022/09/23 01:14:44;;;;;;;12.93;11.23;;;10.20;99.90;;;;;;5046729;28;20036;-80
2022/09/23 01:17:23;;;;;;;12.20;10.88;;;10.20;99.90;;;;;;5068947;28;20047;-80
2022/09/23 01:20:14;;;;;;;12.60;10.57;;;10.40;99.90;;;;;;5069430;28;20479;-80
2022/09/23 01:23:07;;;;;;;13.25;10.77;;;10.10;99.90;;;;;;5058005;28;20040;-81
2022/09/23 01:26:15;;;;;;;13.63;10.80;;;10.10;99.90;;;;;;5073459;28;20040;-80
2022/09/23 01:29:05;;;;;;;14.43;10.90;;;10.10;99.90;;;;;;5071860;28;20047;-80
2022/09/23 01:31:36;;;;;;;12.57;10.73;;;10.10;99.90;;;;;;5068689;28;20032;-81
2022/09/23 01:34:10;;;;;;;12.63;11.05;;;10.00;99.90;;;;;;5058970;28;20032;-80
2022/09/23 01:36:43;;;;;;;14.68;11.18;;;10.00;99.90;;;;;;5057403;28;20040;-80
2022/09/23 01:39:14;;;;;;;13.40;11.35;;;10.00;99.90;;;;;;5064268;28;20058;-80
2022/09/23 01:41:55;;;;;;;13.90;11.10;;;10.00;99.90;;;;;;5062457;28;20045;-80
2022/09/23 01:44:56;;;;;;;13.45;10.70;;;10.00;99.90;;;;;;5072517;28;20032;-80
2022/09/23 01:47:29;;;;;;;13.70;10.85;;;10.00;99.90;;;;;;5059787;28;20119;-80
2022/09/23 01:53:04;;;;;;;12.98;11.32;;;9.90;99.90;;;;;;5095648;28;20052;-80
2022/09/23 01:55:36;;;;;;;15.43;11.10;;;9.90;99.90;;;;;;5072333;28;20036;-81
2022/09/23 01:58:14;;;;;;;12.68;11.02;;;10.10;99.90;;;;;;5081155;28;20115;-81
2022/09/23 02:00:48;;;;;;;14.05;11.98;;;10.00;99.90;;;;;;5059716;28;20036;-80
2022/09/23 02:03:18;;;;;;;13.10;11.13;;;9.90;99.90;;;;;;5047079;28;20071;-81
2022/09/23 02:05:50;;;;;;;14.07;11.45;;;9.90;99.90;;;;;;5085097;28;20032;-80
2022/09/23 02:08:30;;;;;;;14.57;11.93;;;9.90;99.90;;;;;;5075675;28;20384;-79
2022/09/23 02:11:23;;;;;;;13.50;11.85;;;9.80;99.90;;;;;;5081974;28;20040;-80
2022/09/23 02:13:57;;;;;;;12.90;11.52;;;9.80;99.90;;;;;;5064013;28;20059;-82
2022/09/23 02:16:41;;;;;;;13.05;10.93;;;9.80;99.90;;;;;;5078392;28;20040;-80
2022/09/23 02:19:31;;;;;;;14.60;11.68;;;9.80;99.90;;;;;;5056528;28;20044;-79
2022/09/23 02:22:22;;;;;;;16.98;11.80;;;9.80;99.90;;;;;;5044223;28;20040;-78
2022/09/23 02:24:48;;;;;;;14.85;11.73;;;9.80;99.90;;;;;;5051553;28;20150;-80
2022/09/23 02:27:24;;;;;;;14.80;12.02;;;9.70;99.90;;;;;;5053664;28;20079;-80
2022/09/23 02:29:56;;;;;;;;;;;9.70;99.90;;;;;;5072751;28;20082;-80
2022/09/23 02:32:33;;;;;;;12.63;11.23;;;9.60;99.90;;;;;;5059356;28;19927;-79
2022/09/23 02:35:23;;;;;;;14.00;11.65;;;9.60;99.90;;;;;;5078369;28;20040;-79
2022/09/23 02:37:54;;;;;;;14.70;11.13;;;9.60;99.90;;;;;;5064006;28;20038;-79
2022/09/23 02:40:36;;;;;;;12.52;11.15;;;9.60;99.90;;;;;;5077888;28;20048;-79
2022/09/23 02:43:18;;;;;;;14.45;11.38;;;9.60;99.90;;;;;;5078007;28;20048;-79
2022/09/23 02:45:45;;;;;;;13.38;11.40;;;9.80;99.90;;;;;;5072352;28;20036;-78
2022/09/23 02:48:42;;;;;;;14.27;11.52;;;9.50;99.90;;;;;;5057836;28;20177;-80
2022/09/23 02:51:09;;;;;;;15.70;12.57;;;9.50;99.90;;;;;;5077543;28;20043;-80
2022/09/23 02:53:35;;;;;;;13.43;12.05;;;9.50;99.90;;;;;;5039224;28;20039;-80
2022/09/23 02:56:11;;;;;;;14.20;12.10;;;9.50;99.90;;;;;;5057868;28;20039;-80
2022/09/23 02:58:37;;;;;;;;;;;9.50;99.90;;;;;;5070949;28;20028;-80
2022/09/23 03:01:33;;;;;;;14.23;10.87;;;9.40;99.90;;;;;;5072563;28;19916;-80
2022/09/23 03:04:16;;;;;;;13.50;11.07;;;9.40;99.90;;;;;;5063421;28;20039;-79
2022/09/23 03:06:42;;;;;;;14.43;11.63;;;9.40;99.90;;;;;;5065701;28;20036;-80
2022/09/23 03:09:18;;;;;;;12.73;11.40;;;9.40;99.90;;;;;;5057944;28;20047;-80
2022/09/23 03:11:50;;;;;;;13.32;11.93;;;9.40;99.90;;;;;;5064024;28;20086;-80
2022/09/23 03:14:22;;;;;;;15.23;12.02;;;9.40;99.90;;;;;;5056555;28;20040;-79
2022/09/23 03:16:55;;;;;;;15.25;11.98;;;9.30;99.90;;;;;;5065319;28;20047;-80
2022/09/23 03:19:32;;;;;;;14.07;11.40;;;9.30;99.90;;;;;;5078490;28;20043;-80
2022/09/23 03:22:10;;;;;;;14.93;11.82;;;9.40;99.90;;;;;;5075055;28;20400;-80
2022/09/23 03:24:38;;;;;;;12.68;11.00;;;9.30;99.90;;;;;;5052533;28;20032;-80
2022/09/23 03:27:12;;;;;;;12.15;10.85;;;9.30;99.90;;;;;;5041842;28;20037;-80
2022/09/23 03:29:40;;;;;;;12.60;11.30;;;9.90;99.90;;;;;;5073933;28;20117;-80
2022/09/23 03:32:07;;;;;;;13.10;11.23;;;10.20;99.90;;;;;;5064691;28;20392;-80
2022/09/23 03:34:35;;;;;;;12.40;10.43;;;9.20;99.90;;;;;;5060625;28;20032;-80
2022/09/23 03:37:12;;;;;;;17.42;11.50;;;9.20;99.90;;;;;;5072269;28;20387;-79
2022/09/23 03:39:42;;;;;;;12.57;11.20;;;9.20;99.90;;;;;;5049826;28;20053;-81
2022/09/23 03:42:25;;;;;;;13.02;11.35;;;9.10;99.90;;;;;;5050547;28;20127;-81
2022/09/23 03:44:53;;;;;;;15.07;11.10;;;9.20;99.90;;;;;;5070075;28;20131;-80
2022/09/23 03:47:20;;;;;;;14.52;11.30;;;9.20;99.90;;;;;;5058048;28;20032;-80
2022/09/23 03:49:48;;;;;;;12.43;10.82;;;9.20;99.90;;;;;;5068978;28;20093;-81
2022/09/23 03:52:18;;;;;;;13.88;11.20;;;9.20;99.90;;;;;;5086090;28;20040;-80
2022/09/23 03:54:44;;;;;;;13.80;10.80;;;9.10;99.90;;;;;;5057823;28;20082;-80
2022/09/23 03:57:11;;;;;;;14.38;11.60;;;9.10;99.90;;;;;;5067072;28;20039;-80
2022/09/23 03:59:37;;;;;;;14.30;10.63;;;9.30;99.90;;;;;;5052413;28;20109;-80
2022/09/23 04:02:04;;;;;;;14.13;11.52;;;9.10;99.90;;;;;;5056764;28;20040;-81
2022/09/23 04:04:33;;;;;;;13.80;11.07;;;9.10;99.90;;;;;;5058983;28;20484;-80
2022/09/23 04:06:59;;;;;;;12.68;11.02;;;9.10;99.90;;;;;;5073686;28;20040;-80
2022/09/23 04:09:25;;;;;;;14.05;11.38;;;9.20;99.90;;;;;;5090886;28;20046;-80
2022/09/23 04:11:52;;;;;;;16.30;11.85;;;9.10;99.90;;;;;;5055019;28;20119;-81
2022/09/23 04:14:19;;;;;;;13.00;10.70;;;9.00;99.90;;;;;;5071853;28;20032;-80
2022/09/23 04:16:45;;;;;;;16.38;11.80;;;9.10;99.90;;;;;;5067138;28;20039;-81
2022/09/23 04:19:11;;;;;;;14.90;12.23;;;9.00;99.90;;;;;;5076729;28;20048;-80
2022/09/23 04:21:37;;;;;;;14.68;11.80;;;9.10;99.90;;;;;;5059336;28;20061;-79
2022/09/23 04:24:03;;;;;;;13.88;11.32;;;9.10;99.90;;;;;;5054902;28;20040;-79
2022/09/23 04:26:30;;;;;;;13.88;11.45;;;9.00;99.90;;;;;;5051358;28;20048;-80
2022/09/23 04:28:56;;;;;;;12.73;11.43;;;9.80;99.90;;;;;;5041723;28;20491;-81
2022/09/23 04:31:24;;;;;;;16.33;11.65;;;9.10;99.90;;;;;;5072639;28;20083;-80
2022/09/23 04:33:52;;;;;;;16.55;12.23;;;9.10;99.90;;;;;;5061769;28;20036;-80
2022/09/23 04:36:17;;;;;;;14.55;12.18;;;9.40;99.90;;;;;;5076617;28;20123;-81
2022/09/23 04:38:45;;;;;;;13.00;11.55;;;9.00;99.90;;;;;;5080040;28;20495;-81
2022/09/23 04:41:11;;;;;;;14.38;11.35;;;9.10;99.90;;;;;;5054551;28;20132;-80
2022/09/23 04:43:37;;;;;;;19.52;10.73;;;9.40;99.90;;;;;;5076900;28;20036;-80
2022/09/23 04:46:05;;;;;;;12.05;10.73;;;9.00;99.90;;;;;;5042330;28;20048;-80
2022/09/23 04:48:32;;;;;;;14.65;12.20;;;9.00;99.90;;;;;;5073755;28;20036;-80
2022/09/23 04:51:05;;;;;;;13.35;11.70;;;9.10;99.90;;;;;;5069837;28;20400;-80
2022/09/23 04:53:32;;;;;;;12.57;11.27;;;9.00;99.90;;;;;;5078426;28;20044;-80
2022/09/23 04:56:03;;;;;;;16.02;11.63;;;9.00;99.90;;;;;;5069107;28;20036;-80
2022/09/23 04:58:29;;;;;;;13.30;11.90;;;9.00;99.90;;;;;;5086167;28;20031;-79
2022/09/23 05:00:56;;;;;;;14.77;11.82;;;9.00;99.90;;;;;;5040052;28;20079;-80
2022/09/23 05:03:22;;;;;;;15.15;11.90;;;8.90;99.90;;;;;;5052821;28;20036;-80
2022/09/23 05:05:48;;;;;;;15.77;11.98;;;8.90;99.90;;;;;;5059317;28;20067;-80
2022/09/23 05:08:14;;;;;;;15.05;12.32;;;10.10;99.90;;;;;;5060944;28;20452;-81
2022/09/23 05:10:41;;;;;;;14.48;12.57;;;9.00;99.90;;;;;;5059917;28;20048;-80
2022/09/23 05:13:07;;;;;;;15.48;12.35;;;8.90;99.90;;;;;;5057946;28;20115;-80
2022/09/23 05:15:33;;;;;;;16.08;11.75;;;8.90;99.90;;;;;;5061020;28;20085;-80
2022/09/23 05:18:01;;;;;;;15.63;12.25;;;8.80;99.90;;;;;;5078696;28;20044;-81
2022/09/23 05:20:27;;;;;;;13.48;11.30;;;8.80;99.90;;;;;;5059136;28;20041;-80
2022/09/23 05:22:54;;;;;;;14.85;11.93;;;8.80;99.90;;;;;;5062056;28;20040;-80
2022/09/23 05:25:22;;;;;;;15.27;11.35;;;8.80;99.90;;;;;;5049347;28;20557;-79
2022/09/23 05:27:48;;;;;;;14.20;12.07;;;8.80;99.90;;;;;;5063807;28;20046;-79
2022/09/23 05:30:14;;;;;;;12.73;11.43;;;8.80;99.90;;;;;;5058198;28;20040;-81
2022/09/23 05:32:40;;;;;;;16.23;12.60;;;8.80;99.90;;;;;;5060265;28;20127;-80
2022/09/23 05:35:06;;;;;;;17.90;13.50;;;8.80;99.90;;;;;;5042641;28;20127;-80
2022/09/23 05:37:32;;;;;;;15.23;12.45;;;8.80;99.90;;;;;;5061308;28;20541;-80
2022/09/23 05:39:58;;;;;;;18.45;12.85;;;8.80;99.90;;;;;;5061390;28;20135;-80
2022/09/23 05:42:23;;;;;;;19.77;13.25;;;8.80;99.90;;;;;;5072338;28;20080;-80
2022/09/23 05:44:49;;;;;;;17.35;12.20;;;8.80;99.90;;;;;;5046767;28;20035;-81
2022/09/23 05:47:15;;;;;;;15.85;13.10;;;8.70;99.90;;;;;;5058752;28;20063;-81
2022/09/23 05:49:41;;;;;;;13.88;12.30;;;8.80;99.90;;;;;;5081684;28;20050;-80
2022/09/23 05:52:06;;;;;;;18.17;13.07;;;8.80;99.90;;;;;;5080966;28;20040;-80
2022/09/23 05:54:32;;;;;;;20.13;13.48;;;8.90;99.90;;;;;;5064475;28;20071;-80
2022/09/23 05:56:58;;;;;;;16.55;12.40;;;8.90;99.90;;;;;;5061721;28;20040;-80
2022/09/23 05:59:24;;;;;;;16.40;12.77;;;8.90;99.90;;;;;;5047356;28;20086;-81
2022/09/23 06:01:50;;;;;;;15.95;12.75;;;8.90;99.90;;;;;;5062804;28;20040;-80
2022/09/23 06:04:16;;;;;;;17.73;13.15;;;9.00;99.90;;;;;;5046202;28;20042;-80
2022/09/23 06:06:42;;;;;;;14.07;12.25;;;9.00;99.90;;;;;;5071067;28;20061;-80
2022/09/23 06:09:13;;;;;;;14.52;12.20;;;9.10;99.90;;;;;;5075579;28;20047;-80
2022/09/23 06:11:40;;;;;;;16.60;12.80;;;9.10;99.90;;;;;;5089133;28;20068;-79
2022/09/23 06:14:06;;;;;;;15.00;12.80;;;9.20;99.90;;;;;;5070987;28;21174;-79
2022/09/23 06:16:33;;;;;;;19.67;13.15;;;9.20;99.90;;;;;;5044387;28;20079;-79
2022/09/23 06:19:04;;;;;;;17.90;12.88;;;9.20;99.90;;;;;;5077544;28;20043;-79
2022/09/23 06:21:30;;;;;;;16.85;12.65;;;8.90;99.90;;;;;;5064751;28;20123;-80
2022/09/23 06:23:57;;;;;;;18.27;13.10;;;9.30;99.90;;;;;;5058310;28;20135;-81
2022/09/23 06:26:22;;;;;;;15.23;12.10;;;9.30;99.90;;;;;;5059781;28;20094;-80
2022/09/23 06:28:49;;;;;;;17.02;13.15;;;9.40;99.90;;;;;;5048643;28;20514;-80
2022/09/23 06:31:15;;;;;;;18.65;13.55;;;9.40;99.90;;;;;;5056499;28;20052;-80
2022/09/23 06:33:43;;;;;;;16.65;12.88;;;9.40;99.90;;;;;;5060274;28;20365;-80
2022/09/23 06:36:11;;;;;;;19.58;12.75;;;9.50;99.90;;;;;;5073470;28;20055;-80
2022/09/23 06:38:43;;;;;;;14.35;12.15;;;9.40;99.90;;;;;;5073074;28;20039;-81
2022/09/23 06:41:10;;;;;;;15.45;12.07;;;9.50;99.90;;;;;;5070016;28;20052;-81
2022/09/23 06:43:36;;;;;;;18.70;12.23;;;9.50;99.90;;;;;;5065906;28;20074;-81
2022/09/23 06:46:04;;;;;;;15.48;12.52;;;9.50;99.90;;;;;;5077714;28;20063;-80
2022/09/23 06:48:33;;;;;;;13.57;11.57;;;9.50;99.90;;;;;;5074303;28;20039;-80
2022/09/23 06:51:01;;;;;;;16.88;12.13;;;9.60;99.90;;;;;;5076506;28;20032;-80
2022/09/23 06:53:30;;;;;;;14.35;12.80;;;9.60;99.90;;;;;;5063670;28;20040;-81
2022/09/23 06:56:02;;;;;;;18.27;13.68;;;9.70;99.90;;;;;;5077590;28;20346;-82
2022/09/23 06:58:28;;;;;;;14.38;12.57;;;9.70;99.90;;;;;;5065499;28;20115;-80
2022/09/23 07:01:01;;;;;;;16.08;12.80;;;9.70;99.90;;;;;;5057721;28;20043;-79
2022/09/23 07:03:27;;;;;;;17.25;12.95;;;9.80;99.90;;;;;;5076875;28;20479;-79
2022/09/23 07:05:57;;;;;;;18.98;12.93;;;9.80;99.90;;;;;;5064179;28;20040;-80
2022/09/23 07:08:23;;;;;;;15.43;12.95;;;9.80;99.90;;;;;;5073697;28;20137;-80
2022/09/23 07:10:54;;;;;;;15.32;12.85;;;9.80;99.90;;;;;;5060371;28;20120;-80
2022/09/23 07:13:20;;;;;;;22.73;13.02;;;10.00;99.90;;;;;;5057228;28;20044;-81
2022/09/23 07:15:50;;;;;;;16.92;12.60;;;10.00;99.90;;;;;;5059336;28;20036;-80
2022/09/23 07:18:18;;;;;;;15.60;12.90;;;10.10;99.90;;;;;;5053438;28;20480;-80
2022/09/23 07:20:45;;;;;;;14.68;12.98;;;9.80;99.90;;;;;;5076455;28;20387;-80
2022/09/23 07:23:12;;;;;;;16.25;12.93;;;10.20;99.90;;;;;;5061851;28;20044;-80
2022/09/23 07:25:37;;;;;;;13.80;12.13;;;10.20;99.90;;;;;;5066422;28;20040;-82
2022/09/23 07:28:04;;;;;;;17.33;12.98;;;10.30;99.90;;;;;;5059987;28;20046;-81
2022/09/23 07:30:30;;;;;;;14.38;12.02;;;10.30;99.90;;;;;;5059651;28;20097;-80
2022/09/23 07:32:55;;;;;;;14.65;12.40;;;10.40;99.90;;;;;;5061280;28;20048;-80
2022/09/23 07:35:21;;;;;;;12.82;11.40;;;10.40;99.90;;;;;;5045776;28;20039;-80
2022/09/23 07:37:49;;;;;;;13.57;11.88;;;10.50;99.90;;;;;;5044888;28;20059;-80
2022/09/23 07:40:15;;;;;;;15.68;12.35;;;10.50;99.90;;;;;;5076155;28;20052;-81
2022/09/23 07:42:40;;;;;;;12.50;11.20;;;10.60;99.90;;;;;;5056347;28;20052;-80
2022/09/23 07:45:07;;;;;;;14.05;12.07;;;10.60;99.90;;;;;;5092886;28;20040;-80
2022/09/23 07:47:34;;;;;;;15.10;12.02;;;10.60;99.90;;;;;;5044343;28;20101;-79
2022/09/23 07:49:59;;;;;;;14.75;12.45;;;10.70;99.90;;;;;;5053219;28;20094;-79
2022/09/23 07:52:25;;;;;;;17.52;11.80;;;10.80;99.90;;;;;;5049267;28;20505;-80
2022/09/23 07:54:51;;;;;;;13.40;11.52;;;10.80;99.90;;;;;;5075129;28;20370;-80
2022/09/23 07:57:17;;;;;;;15.38;11.50;;;10.90;99.90;;;;;;5053289;28;20040;-82
2022/09/23 07:59:43;;;;;;;18.55;11.32;;;10.90;99.90;;;;;;5038280;28;20041;-80
2022/09/23 08:02:11;;;;;;;14.20;10.98;;;11.00;99.90;;;;;;5029184;28;20035;-80
2022/09/23 08:04:36;;;;;;;14.25;11.75;;;11.00;99.90;;;;;;5072570;28;20069;-80
2022/09/23 08:07:04;;;;;;;15.30;11.88;;;11.10;99.90;;;;;;5043534;28;20040;-81
2022/09/23 08:09:33;;;;;;;14.35;11.43;;;11.20;99.90;;;;;;5070329;28;20044;-80
2022/09/23 08:12:00;;;;;;;14.00;11.02;;;11.30;99.90;;;;;;5076251;28;20048;-80
2022/09/23 08:14:25;;;;;;;14.32;10.88;;;11.30;99.90;;;;;;5059944;28;20040;-80
2022/09/23 08:16:52;;;;;;;16.10;11.25;;;11.40;99.90;;;;;;5042475;28;20044;-80
2022/09/23 08:19:18;;;;;;;15.98;11.13;;;11.50;99.90;;;;;;5073724;28;20568;-80
2022/09/23 08:21:46;;;;;;;13.93;10.98;;;11.60;99.90;;;;;;5042799;28;20146;-81
2022/09/23 08:24:15;;;;;;;14.63;11.55;;;11.60;99.90;;;;;;5076906;28;20108;-80
2022/09/23 08:26:41;;;;;;;12.27;10.93;;;11.70;99.90;;;;;;5068618;28;20044;-80
2022/09/23 08:29:09;;;;;;;15.48;10.80;;;11.70;99.90;;;;;;5042054;28;20071;-81
2022/09/23 08:31:34;;;;;;;13.65;10.98;;;11.80;99.90;;;;;;5065895;28;20464;-80
2022/09/23 08:34:00;;;;;;;12.88;11.27;;;11.80;99.90;;;;;;5094153;28;20047;-80
2022/09/23 08:36:26;;;;;;;14.13;10.77;;;11.90;99.90;;;;;;5065521;28;20040;-80
2022/09/23 08:38:53;;;;;;;15.07;11.18;;;12.00;99.90;;;;;;5099863;28;20047;-80
2022/09/23 08:41:26;;;;;;;14.90;11.00;;;12.10;99.90;;;;;;5065655;28;20040;-80
2022/09/23 08:44:02;;;;;;;14.20;10.77;;;12.20;99.90;;;;;;5075335;28;20046;-80
2022/09/23 08:46:45;;;;;;;12.00;10.40;;;12.30;99.90;;;;;;5061213;28;20553;-80
2022/09/23 08:49:16;;;;;;;12.90;9.80;;;12.40;99.90;;;;;;5060383;28;20043;-80
2022/09/23 08:51:47;;;;;;;13.80;10.85;;;12.50;99.90;;;;;;5060243;28;20094;-80
2022/09/23 08:54:16;;;;;;;11.82;10.20;;;12.60;99.90;;;;;;5043259;28;20044;-80
2022/09/23 08:56:44;;;;;;;13.65;10.80;;;12.70;99.90;;;;;;5073711;28;20040;-81
2022/09/23 08:59:23;;;;;;;17.67;10.13;;;12.80;99.90;;;;;;5059321;28;20540;-81
2022/09/23 09:01:52;;;;;;;12.05;9.43;;;12.90;99.90;;;;;;5057469;28;20032;-80
2022/09/23 09:04:43;;;;;;;12.57;10.13;;;13.10;99.90;;;;;;5059432;28;20047;-80
2022/09/23 09:07:08;;;;;;;15.57;9.40;;;13.20;99.90;;;;;;5070003;28;20527;-80
2022/09/23 09:09:52;;;;;;;13.10;10.30;;;13.30;99.90;;;;;;5057731;28;20040;-81
2022/09/23 09:12:42;;;;;;;12.23;9.40;;;13.50;99.90;;;;;;5074392;28;20036;-80
2022/09/23 09:15:20;;;;;;;20.42;10.82;;;13.70;99.90;;;;;;5075370;28;20040;-80
2022/09/23 09:18:18;;;;;;;14.13;9.55;;;13.70;99.90;;;;;;5052007;28;20047;-80
2022/09/23 09:20:56;;;;;;;16.58;10.05;;;13.80;99.90;;;;;;5062443;28;20032;-80
2022/09/23 09:23:53;;;;;;;12.18;9.80;;;13.90;99.90;;;;;;5065060;28;20054;-79
2022/09/23 09:26:20;;;;;;;;;;;14.00;99.90;;;;;;5051850;28;20052;-80
2022/09/23 09:28:58;;;;;;;11.55;8.93;;;14.10;99.90;;;;;;5074760;28;20344;-80
2022/09/23 09:31:43;;;;;;;12.98;8.65;;;14.10;99.90;;;;;;5087455;28;20126;-80
2022/09/23 09:34:33;;;;;;;11.25;8.98;;;14.30;99.90;;;;;;5072824;28;20036;-81
2022/09/23 09:37:07;;;;;;;11.23;8.40;;;14.30;99.90;;;;;;5068476;28;20115;-80
2022/09/23 09:39:34;;;;;;;13.88;8.40;;;14.30;99.90;;;;;;5058629;28;20141;-80
2022/09/23 09:42:01;;;;;;;11.13;8.77;;;14.30;99.90;;;;;;5042188;28;20136;-80
2022/09/23 09:44:30;;;;;;;14.77;9.48;;;14.40;99.90;;;;;;5073795;28;20066;-80
2022/09/23 09:47:32;;;;;;;12.85;8.57;;;14.40;99.90;;;;;;5073192;28;20044;-80
2022/09/23 09:50:10;;;;;;;11.07;8.57;;;14.50;99.90;;;;;;5074255;28;20035;-81
2022/09/23 09:52:36;;;;;;;12.57;9.13;;;14.50;99.90;;;;;;5060537;28;20548;-80
2022/09/23 09:55:11;;;;;;;10.98;8.30;;;14.50;99.90;;;;;;5077841;28;20071;-81
2022/09/23 09:57:59;;;;;;;13.07;9.18;;;14.50;99.90;;;;;;5060721;28;20480;-80
2022/09/23 10:00:25;;;;;;;11.35;8.00;;;14.50;99.90;;;;;;5061021;28;20365;-80
2022/09/23 10:02:58;;;;;;;10.13;8.10;;;14.60;99.90;;;;;;5057826;28;20519;-80
2022/09/23 10:05:48;;;;;;;13.20;8.88;;;14.60;99.90;;;;;;5057782;28;20043;-80
2022/09/23 10:08:23;;;;;;;13.13;8.75;;;14.70;99.90;;;;;;5064764;28;20044;-80
2022/09/23 10:11:14;;;;;;;11.65;8.30;;;14.60;99.90;;;;;;5094219;28;20040;-80
2022/09/23 10:14:00;;;;;;;10.57;8.50;;;14.70;99.90;;;;;;5067041;28;20175;-80
2022/09/23 10:16:31;;;;;;;11.25;8.88;;;14.70;99.90;;;;;;5053555;28;20044;-80
2022/09/23 10:18:59;;;;;;;11.70;8.32;;;14.80;99.90;;;;;;5042010;28;20515;-80
2022/09/23 10:21:32;;;;;;;10.50;8.77;;;14.80;99.90;;;;;;5071146;28;20110;-80
2022/09/23 10:23:59;;;;;;;14.23;8.85;;;14.90;99.90;;;;;;5077775;28;20036;-80
2022/09/23 10:26:57;;;;;;;10.80;8.48;;;15.00;99.90;;;;;;5044787;28;20055;-80
2022/09/23 10:29:31;;;;;;;9.40;8.18;;;15.10;99.90;;;;;;5068085;28;20076;-81
2022/09/23 10:32:25;;;;;;;12.43;8.73;;;15.10;99.90;;;;;;5051301;28;20094;-81
2022/09/23 10:35:07;;;;;;;9.55;8.38;;;15.20;99.90;;;;;;5076312;28;20044;-81
2022/09/23 10:37:47;;;;;;;10.10;8.10;;;15.30;99.90;;;;;;5061003;28;20482;-81
2022/09/23 10:46:37;;;;;;;11.55;8.77;;;15.40;99.90;;;;;;5077203;28;20051;-81
2022/09/23 10:49:21;;;;;;;10.55;7.72;;;15.40;99.90;;;;;;5060228;28;20044;-81
2022/09/23 10:52:24;;;;;;;10.15;7.82;;;15.40;99.90;;;;;;5077248;28;20449;-80
2022/09/23 10:55:01;;;;;;;12.15;8.23;;;15.50;99.90;;;;;;5073712;28;20036;-80
2022/09/23 10:57:45;;;;;;;14.02;7.82;;;15.50;99.90;;;;;;5053363;28;20040;-80
2022/09/23 11:00:26;;;;;;;10.65;8.65;;;15.50;99.90;;;;;;5062430;28;20131;-80
2022/09/23 11:03:23;;;;;;;12.25;8.20;;;15.50;99.90;;;;;;5061218;28;20043;-80
2022/09/23 11:06:01;;;;;;;9.15;8.13;;;15.50;99.90;;;;;;5059609;28;20045;-81
2022/09/23 11:08:42;;;;;;;9.18;8.15;;;15.50;99.90;;;;;;5061167;28;20096;-80
2022/09/23 11:11:22;;;;;;;10.40;8.10;;;15.50;99.90;;;;;;5056290;28;20044;-81
2022/09/23 11:14:28;;;;;;;10.60;8.00;;;15.50;99.90;;;;;;5073304;28;20496;-80
2022/09/23 11:16:57;;;;;;;8.93;7.53;;;15.50;99.90;;;;;;5075751;28;20094;-81
2022/09/23 11:19:44;;;;;;;11.82;8.50;;;15.50;99.90;;;;;;5076040;28;20483;-81
2022/09/23 11:22:36;;;;;;;11.88;8.70;;;15.50;99.90;;;;;;5067352;28;20047;-81
2022/09/23 11:25:20;;;;;;;12.50;7.95;;;15.50;99.90;;;;;;5059812;28;20047;-81
2022/09/23 11:27:46;;;;;;;12.77;8.20;;;15.50;99.90;;;;;;5056295;28;20040;-80
2022/09/23 11:30:21;;;;;;;14.43;7.95;;;15.50;99.90;;;;;;5075220;28;20119;-81
2022/09/23 11:33:29;;;;;;;10.20;8.27;;;15.50;99.90;;;;;;5075386;28;20047;-80
2022/09/23 11:36:01;;;;;;;12.07;8.80;;;15.50;99.90;;;;;;5077051;28;20499;-80
2022/09/23 11:38:42;;;;;;;11.75;8.93;;;15.50;99.90;;;;;;5077156;28;20074;-80
2022/09/23 11:41:19;;;;;;;12.80;8.50;;;15.50;99.90;;;;;;5074615;28;20126;-80
2022/09/23 11:43:51;;;;;;;11.85;9.57;;;15.40;99.90;;;;;;5078412;28;20063;-80
2022/09/23 11:46:22;;;;;;;14.10;9.45;;;15.40;99.90;;;;;;5076657;28;20043;-80
2022/09/23 11:48:54;;;;;;;13.75;9.85;;;15.40;99.90;;;;;;5062405;28;20122;-80
2022/09/23 11:51:59;;;;;;;11.77;8.65;;;15.40;99.90;;;;;;5061079;28;20036;-80
2022/09/23 11:54:47;;;;;;;14.13;8.95;;;15.40;99.90;;;;;;5078699;28;20043;-79
2022/09/23 11:57:36;;;;;;;14.95;9.43;;;15.40;99.90;;;;;;5082556;28;20496;-80
2022/09/23 12:00:31;;;;;;;13.68;9.43;;;15.40;99.90;;;;;;5081820;28;20040;-80
2022/09/23 12:03:24;;;;;;;16.52;8.85;;;15.50;99.90;;;;;;5051446;28;20135;-80
2022/09/23 12:05:58;;;;;;;12.55;8.20;;;15.50;99.90;;;;;;5059551;28;20106;-80
2022/09/23 12:08:33;;;;;;;11.45;8.93;;;15.50;99.90;;;;;;5061351;28;20078;-80
2022/09/23 12:11:14;;;;;;;12.43;9.68;;;15.50;99.90;;;;;;5059352;28;20073;-80
2022/09/23 12:13:58;;;;;;;11.90;7.97;;;15.50;99.90;;;;;;5073271;28;20052;-80
2022/09/23 12:16:53;;;;;;;11.05;9.35;;;15.50;99.90;;;;;;5072784;28;20040;-80
2022/09/23 12:19:41;;;;;;;11.03;8.83;;;15.50;99.90;;;;;;5062779;28;20395;-81
2022/09/23 12:22:27;;;;;;;10.50;8.23;;;15.60;99.90;;;;;;5071715;28;20484;-81
2022/09/23 12:24:58;;;;;;;9.18;7.43;;;15.50;99.90;;;;;;5066855;28;20078;-81
2022/09/23 12:27:44;;;;;;;10.93;8.30;;;15.50;99.90;;;;;;5050614;28;20514;-80
2022/09/23 12:30:20;;;;;;;10.60;8.15;;;15.50;99.90;;;;;;5084260;28;20104;-81
2022/09/23 12:32:46;;;;;;;11.50;7.90;;;15.50;99.90;;;;;;5064612;28;20039;-80
2022/09/23 12:35:37;;;;;;;10.55;7.35;;;15.50;99.90;;;;;;5046722;28;20465;-80
2022/09/23 12:38:12;;;;;;;11.63;7.70;;;15.50;99.90;;;;;;5055734;28;20101;-81
2022/09/23 12:40:40;;;;;;;13.30;8.15;;;15.50;99.90;;;;;;5073902;28;20079;-81
2022/09/23 12:43:18;;;;;;;12.90;7.95;;;15.50;99.90;;;;;;5039926;28;20032;-81
2022/09/23 12:45:44;;;;;;;10.15;7.95;;;15.50;99.90;;;;;;5074990;28;20048;-81
2022/09/23 12:48:16;;;;;;;10.98;8.35;;;15.50;99.90;;;;;;5074011;28;20050;-80
2022/09/23 12:51:14;;;;;;;11.23;8.20;;;15.60;99.90;;;;;;5054478;28;20046;-80
2022/09/23 12:53:58;;;;;;;12.63;8.45;;;15.60;99.90;;;;;;5073330;28;20051;-81
2022/09/23 12:56:33;;;;;;;10.07;8.63;;;15.70;99.90;;;;;;5072931;28;20514;-80
2022/09/23 12:59:09;;;;;;;10.75;7.95;;;15.70;99.90;;;;;;5057680;28;20037;-80
2022/09/23 13:01:36;;;;;;;8.95;7.85;;;15.70;99.90;;;;;;5067673;28;20036;-80
2022/09/23 13:07:05;;;;;;;10.48;7.65;;;15.80;99.90;;;;;;5053896;28;20044;-80
2022/09/23 13:09:38;;;;;;;10.55;8.27;;;15.80;99.90;;;;;;5080450;28;20094;-80
2022/09/23 13:12:28;;;;;;;13.32;8.18;;;15.80;99.90;;;;;;5058736;28;20128;-80
2022/09/23 13:14:59;;;;;;;10.30;8.48;;;15.80;99.90;;;;;;5073421;28;20105;-80
2022/09/23 13:17:45;;;;;;;11.57;7.75;;;15.80;99.90;;;;;;5076053;28;20048;-80